Alexander — SX8191 — position and weather

sailwx.info

Track history (hours):
 
Tides and Currents Weather Stations Pressure Air Temp Water Temp Dewpoint Dewpoint Depression Visibility Wind Speed Wind Dir Waves Ship Positions

Alexander

Last reported at 2017-Oct-02 17:01 UTC. Time now 2017-Nov-19 21:58 UTC.
Position N 37°02' E 025°05'.
Warning: this ship's position is 48 days out of date.

Length 40 m; draft 2.4 m.

Type: Passenger vessel. MMSI: 237133300.

Date/timePositionNaut miles runAvg speedWind from/ knotsBaromVisibWave heightAir tempDewpointWater temp
2017-Oct-02 17:01N 37°02' E 025°05'0 0.0
2017-Oct-02 17:00N 37°02' E 025°05'0 0.3
2017-Oct-02 16:30N 37°02' E 025°05'912.4
2017-Oct-02 15:46N 37°09' E 025°13'2 7.1
2017-Oct-02 15:31N 37°08' E 025°14'612.4
2017-Oct-02 15:00N 37°07' E 025°22'713.3
2017-Oct-02 14:30N 37°13' E 025°20'918.2
2017-Oct-02 14:01N 37°22' E 025°19'5 9.9
2017-Oct-02 13:30N 37°27' E 025°20'0 0.0
2017-Oct-02 13:01N 37°27' E 025°20'0 0.0
2017-Oct-02 12:30N 37°27' E 025°20'0 0.0
2017-Oct-02 12:01N 37°27' E 025°20'0 0.0
2017-Oct-02 11:31N 37°27' E 025°20'0 0.0
2017-Oct-02 11:01N 37°27' E 025°20'4 8.7
2017-Oct-02 10:30N 37°24' E 025°16'0 0.0
2017-Oct-02 10:01N 37°24' E 025°16'0 0.0
2017-Oct-02 09:30N 37°24' E 025°16'0 0.0
2017-Oct-02 09:00N 37°24' E 025°16'2 4.2
2017-Oct-02 08:31N 37°26' E 025°17'1 2.7
2017-Oct-02 08:00N 37°25' E 025°16'611.4
2017-Oct-02 07:30N 37°19' E 025°15'816.7
2017-Oct-02 07:01N 37°11' E 025°15'2 4.2
2017-Oct-02 06:31N 37°09' E 025°15'612.6
2017-Oct-02 06:01N 37°06' E 025°22'0 0.0
2017-Oct-02 05:31N 37°06' E 025°22'0 0.0
2017-Oct-02 05:01N 37°06' E 025°22'0 0.0
2017-Oct-02 04:31N 37°06' E 025°22'0 0.0
2017-Oct-02 04:01N 37°06' E 025°22'0 0.0
2017-Oct-02 03:31N 37°06' E 025°22'0 0.0
2017-Oct-02 03:01N 37°06' E 025°22'0 0.0
2017-Oct-02 02:31N 37°06' E 025°22'0 0.0
2017-Oct-02 02:01N 37°06' E 025°22'0 0.0
2017-Oct-02 01:31N 37°06' E 025°22'0 0.0
2017-Oct-02 01:00N 37°06' E 025°22'0 0.0
2017-Oct-02 00:30N 37°06' E 025°22'0 0.0
2017-Oct-02 00:01N 37°06' E 025°22'0 0.0
2017-Oct-01 23:31N 37°06' E 025°22'0 0.0
2017-Oct-01 23:01N 37°06' E 025°22'0 0.0
2017-Oct-01 22:31N 37°06' E 025°22'0 0.0
2017-Oct-01 22:01N 37°06' E 025°22'0 0.0
2017-Oct-01 21:31N 37°06' E 025°22'0 0.0
2017-Oct-01 21:01N 37°06' E 025°22'0 0.0
2017-Oct-01 20:31N 37°06' E 025°22'0 0.0
2017-Oct-01 20:01N 37°06' E 025°22'0 0.0
2017-Oct-01 19:31N 37°06' E 025°22'0 0.0
2017-Oct-01 19:01N 37°06' E 025°22'0 0.0
2017-Oct-01 18:31N 37°06' E 025°22'0 0.0
2017-Oct-01 18:01N 37°06' E 025°22'0 0.0
2017-Oct-01 17:31N 37°06' E 025°22'0 0.0
2017-Oct-01 17:01N 37°06' E 025°22'0 0.0
2017-Oct-01 16:30N 37°06' E 025°22'0 0.0
2017-Oct-01 16:01N 37°06' E 025°22'0 0.0
2017-Oct-01 15:30N 37°06' E 025°22'0 0.0
2017-Oct-01 15:01N 37°06' E 025°22'0 0.0
2017-Oct-01 14:31N 37°06' E 025°22'0 0.0
2017-Oct-01 14:01N 37°06' E 025°22'0 0.0
2017-Oct-01 13:31N 37°06' E 025°22'0 0.0
2017-Oct-01 13:01N 37°06' E 025°22'0 0.0
2017-Oct-01 12:31N 37°06' E 025°22'0 0.0
2017-Oct-01 12:01N 37°06' E 025°22'0 0.0
2017-Oct-01 11:31N 37°06' E 025°22'0 0.0
2017-Oct-01 11:01N 37°06' E 025°22'0 0.0
2017-Oct-01 10:30N 37°06' E 025°22'0 0.0
2017-Oct-01 10:01N 37°06' E 025°22'0 0.0
2017-Oct-01 09:31N 37°06' E 025°22'0 0.0
2017-Oct-01 09:00N 37°06' E 025°22'0 0.0
2017-Oct-01 08:31N 37°06' E 025°22'0 0.0
2017-Oct-01 08:00N 37°06' E 025°22'0 0.0
2017-Oct-01 07:30N 37°06' E 025°22'0 0.0
2017-Oct-01 07:00N 37°06' E 025°22'0 0.0
2017-Oct-01 06:30N 37°06' E 025°22'0 0.0
2017-Oct-01 06:01N 37°06' E 025°22'0 0.0
2017-Oct-01 05:31N 37°06' E 025°22'0 0.0
2017-Oct-01 05:01N 37°06' E 025°22'0 0.0
2017-Oct-01 04:30N 37°06' E 025°22'0 0.0
2017-Oct-01 04:01N 37°06' E 025°22'0 0.0
2017-Oct-01 03:31N 37°06' E 025°22'0 0.0
2017-Oct-01 03:01N 37°06' E 025°22'0 0.0
2017-Sep-30 02:01N 37°06' E 025°22'0 0.0
2017-Sep-30 01:31N 37°06' E 025°22'0 0.0
2017-Sep-30 01:01N 37°06' E 025°22'0 0.0
2017-Sep-30 00:30N 37°06' E 025°22'0 0.0
2017-Sep-30 00:01N 37°06' E 025°22'0 0.0
2017-Sep-29 23:31N 37°06' E 025°22'0 0.0
2017-Sep-29 23:01N 37°06' E 025°22'0 0.0
2017-Sep-29 22:31N 37°06' E 025°22'0 0.0
2017-Sep-29 22:01N 37°06' E 025°22'0 0.0
2017-Sep-29 21:31N 37°06' E 025°22'0 0.0
2017-Sep-29 21:01N 37°06' E 025°22'0 0.0
2017-Sep-29 20:31N 37°06' E 025°22'1 2.8
2017-Sep-29 20:01N 37°08' E 025°22'1020.0
2017-Sep-29 19:31N 37°17' E 025°20'1019.6
2017-Sep-29 19:01N 37°27' E 025°19'1 1.4
2017-Sep-29 18:31N 37°27' E 025°20'0 0.0
2017-Sep-29 18:00N 37°27' E 025°20'0 0.0
2017-Sep-29 17:31N 37°27' E 025°20'0 0.0
2017-Sep-29 17:00N 37°27' E 025°20'0 0.0
2017-Sep-29 16:31N 37°27' E 025°20'0 0.0
2017-Sep-29 16:00N 37°27' E 025°20'0 0.0
2017-Sep-29 15:31N 37°27' E 025°20'0 0.0
2017-Sep-29 15:00N 37°27' E 025°20'0 0.0
2017-Sep-29 14:31N 37°27' E 025°20'0 0.0
2017-Sep-29 14:01N 37°27' E 025°20'0 0.2
2017-Sep-29 13:31N 37°27' E 025°20'713.8
2017-Sep-29 13:00N 37°20' E 025°18'918.0
2017-Sep-29 12:31N 37°11' E 025°21'510.3
2017-Sep-29 11:59N 37°06' E 025°22'0 0.0
2017-Sep-29 11:31N 37°06' E 025°22'0 0.0
2017-Sep-29 11:01N 37°06' E 025°22'0 0.0
2017-Sep-29 10:31N 37°06' E 025°22'0 0.0
2017-Sep-29 10:01N 37°06' E 025°22'0 0.0
2017-Sep-29 09:31N 37°06' E 025°22'0 0.0
2017-Sep-29 09:01N 37°06' E 025°22'1 1.4
2017-Sep-29 08:31N 37°07' E 025°22'918.7
2017-Sep-29 08:00N 37°16' E 025°19'918.7
2017-Sep-29 07:31N 37°25' E 025°18'2 4.4
2017-Sep-29 07:01N 37°27' E 025°20'0 0.0
2017-Sep-29 06:30N 37°27' E 025°20'0 0.0
2017-Sep-29 06:00N 37°27' E 025°20'0 0.0
2017-Sep-29 05:30N 37°27' E 025°20'0 0.0
2017-Sep-29 05:01N 37°27' E 025°20'0 0.1
2017-Sep-29 04:31N 37°27' E 025°20'612.4
2017-Sep-29 04:01N 37°21' E 025°20'816.5
2017-Sep-29 03:30N 37°13' E 025°21'612.8
2017-Sep-29 03:01N 37°06' E 025°22'0 0.0
2017-Sep-29 02:31N 37°06' E 025°22'0 0.0
2017-Sep-29 02:01N 37°06' E 025°22'0 0.0
2017-Sep-29 01:31N 37°06' E 025°22'0 0.0
2017-Sep-29 01:01N 37°06' E 025°22'0 0.0
2017-Sep-29 00:31N 37°06' E 025°22'0 0.0
2017-Sep-29 00:01N 37°06' E 025°22'0 0.0
2017-Sep-28 23:31N 37°06' E 025°22'0 0.0
2017-Sep-28 23:01N 37°06' E 025°22'0 0.0
2017-Sep-28 22:31N 37°06' E 025°22'0 0.0
2017-Sep-28 22:01N 37°06' E 025°22'0 0.0
2017-Sep-28 21:31N 37°06' E 025°22'0 0.0
2017-Sep-28 21:01N 37°06' E 025°22'0 0.0
2017-Sep-28 20:31N 37°06' E 025°22'0 0.0
2017-Sep-28 20:01N 37°06' E 025°22'0 0.0
2017-Sep-28 19:31N 37°06' E 025°22'0 0.0
2017-Sep-28 19:01N 37°06' E 025°22'0 0.0
2017-Sep-28 18:30N 37°06' E 025°22'0 0.0
2017-Sep-28 18:01N 37°06' E 025°22'0 0.0
2017-Sep-28 17:30N 37°06' E 025°22'0 0.0
2017-Sep-28 17:01N 37°06' E 025°22'0 0.0
2017-Sep-28 16:31N 37°06' E 025°22'0 0.0
2017-Sep-28 16:01N 37°06' E 025°22'0 0.0
2017-Sep-28 15:31N 37°06' E 025°22'0 0.0
2017-Sep-28 15:01N 37°06' E 025°22'0 0.0
2017-Sep-28 14:31N 37°06' E 025°22'0 0.0
2017-Sep-28 14:01N 37°06' E 025°22'0 0.0
2017-Sep-28 13:31N 37°06' E 025°22'0 0.0
2017-Sep-28 13:01N 37°06' E 025°22'0 0.0
2017-Sep-28 12:31N 37°06' E 025°22'0 0.0
2017-Sep-28 12:00N 37°06' E 025°22'0 0.0
2017-Sep-28 11:31N 37°06' E 025°22'0 0.0
2017-Sep-28 11:01N 37°06' E 025°22'0 0.0
2017-Sep-28 10:31N 37°06' E 025°22'0 0.0
2017-Sep-28 10:01N 37°06' E 025°22'0 0.0
2017-Sep-28 09:30N 37°06' E 025°22'0 0.0
2017-Sep-28 09:01N 37°06' E 025°22'0 0.0
2017-Sep-28 08:30N 37°06' E 025°22'0 0.0
2017-Sep-28 08:01N 37°06' E 025°22'0 0.0
2017-Sep-28 07:31N 37°06' E 025°22'0 0.0
2017-Sep-28 07:01N 37°06' E 025°22'0 0.0
2017-Sep-28 06:31N 37°06' E 025°22'0 0.0
2017-Sep-28 06:01N 37°06' E 025°22'0 0.0
2017-Sep-28 05:30N 37°06' E 025°22'0 0.0
2017-Sep-28 05:01N 37°06' E 025°22'0 0.0
2017-Sep-28 04:30N 37°06' E 025°22'0 0.0
2017-Sep-28 04:01N 37°06' E 025°22'0 0.0
2017-Sep-28 03:31N 37°06' E 025°22'0 0.0
2017-Sep-28 03:01N 37°06' E 025°22'0 0.0
2017-Sep-28 02:31N 37°06' E 025°22'0 0.0
2017-Sep-28 02:00N 37°06' E 025°22'0 0.0
2017-Sep-28 01:30N 37°06' E 025°22'0 0.0
2017-Sep-28 01:01N 37°06' E 025°22'0 0.0
2017-Sep-28 00:30N 37°06' E 025°22'0 0.0
2017-Sep-28 00:01N 37°06' E 025°22'0 0.0
2017-Sep-27 23:31N 37°06' E 025°22'0 0.0
2017-Sep-27 23:01N 37°06' E 025°22'0 0.0
2017-Sep-27 22:30N 37°06' E 025°22'0 0.0
2017-Sep-27 22:00N 37°06' E 025°22'0 0.0
2017-Sep-27 21:30N 37°06' E 025°22'0 0.0
2017-Sep-27 21:01N 37°06' E 025°22'0 0.0
2017-Sep-27 20:30N 37°06' E 025°22'0 0.0
2017-Sep-27 20:01N 37°06' E 025°22'0 0.0
2017-Sep-27 19:31N 37°06' E 025°22'0 0.0
2017-Sep-27 19:00N 37°06' E 025°22'0 0.0
2017-Sep-27 18:30N 37°06' E 025°22'0 0.0
2017-Sep-27 18:01N 37°06' E 025°22'0 0.0
2017-Sep-27 17:30N 37°06' E 025°22'0 0.0
2017-Sep-27 17:01N 37°06' E 025°22'0 0.0
2017-Sep-27 16:30N 37°06' E 025°22'0 0.0
2017-Sep-27 16:00N 37°06' E 025°22'510.2
2017-Sep-27 15:30N 37°09' E 025°17'2 5.0
2017-Sep-27 15:00N 37°10' E 025°15'918.4
2017-Sep-27 14:30N 37°20' E 025°16'815.9
2017-Sep-27 14:01N 37°27' E 025°20'0 0.0
2017-Sep-27 13:31N 37°27' E 025°20'0 0.0
2017-Sep-27 13:00N 37°27' E 025°20'0 0.0
2017-Sep-27 12:31N 37°27' E 025°20'0 0.0
2017-Sep-27 12:01N 37°27' E 025°20'0 0.0
2017-Sep-27 11:31N 37°27' E 025°20'0 0.0
2017-Sep-27 11:01N 37°27' E 025°20'4 8.7
2017-Sep-27 10:31N 37°24' E 025°16'0 0.0
2017-Sep-27 10:01N 37°24' E 025°16'0 0.0
2017-Sep-27 09:31N 37°24' E 025°16'1 2.3
2017-Sep-27 09:01N 37°25' E 025°16'3 6.8
2017-Sep-27 08:31N 37°27' E 025°20'0 0.0
2017-Sep-27 08:01N 37°27' E 025°20'510.7
2017-Sep-27 07:31N 37°23' E 025°16'1020.1
2017-Sep-27 07:00N 37°13' E 025°15'4 8.8
2017-Sep-27 06:31N 37°08' E 025°15'613.0
2017-Sep-27 06:01N 37°06' E 025°22'0 0.0
2017-Sep-27 05:30N 37°06' E 025°22'0 0.0
2017-Sep-27 05:01N 37°06' E 025°22'0 0.0
2017-Sep-27 04:31N 37°06' E 025°22'0 0.0
2017-Sep-27 04:01N 37°06' E 025°22'0 0.0
2017-Sep-27 03:31N 37°06' E 025°22'0 0.0
2017-Sep-27 03:01N 37°06' E 025°22'0 0.0
2017-Sep-27 02:31N 37°06' E 025°22'0 0.0
2017-Sep-27 02:01N 37°06' E 025°22'0 0.0
2017-Sep-27 01:30N 37°06' E 025°22'0 0.0
2017-Sep-27 01:01N 37°06' E 025°22'0 0.0
2017-Sep-27 00:31N 37°06' E 025°22'0 0.0
2017-Sep-27 00:01N 37°06' E 025°22'0 0.0
2017-Sep-26 23:31N 37°06' E 025°22'0 0.0
2017-Sep-26 23:01N 37°06' E 025°22'0 0.0
2017-Sep-26 22:31N 37°06' E 025°22'0 0.0
2017-Sep-26 22:01N 37°06' E 025°22'0 0.0
2017-Sep-26 21:31N 37°06' E 025°22'0 0.0
2017-Sep-26 21:00N 37°06' E 025°22'0 0.0
2017-Sep-26 20:31N 37°06' E 025°22'0 0.0
2017-Sep-26 20:00N 37°06' E 025°22'0 0.0
2017-Sep-26 19:31N 37°06' E 025°22'0 0.0
2017-Sep-26 19:01N 37°06' E 025°22'0 0.0
2017-Sep-26 18:31N 37°06' E 025°22'0 0.0
2017-Sep-26 18:01N 37°06' E 025°22'0 0.0
2017-Sep-26 17:30N 37°06' E 025°22'0 0.0
2017-Sep-26 17:01N 37°06' E 025°22'4 7.1
2017-Sep-26 16:30N 37°04' E 025°19'5 0.5
2017-Sep-26 05:41N 36°59' E 025°16'315.1
2017-Sep-26 05:31N 37°02' E 025°16'714.0
2017-Sep-26 05:01N 37°06' E 025°22'0 0.0
2017-Sep-26 04:31N 37°06' E 025°22'0 0.0
2017-Sep-26 04:01N 37°06' E 025°22'0 0.0
2017-Sep-26 03:31N 37°06' E 025°22'0 0.0
2017-Sep-26 03:01N 37°06' E 025°22'0 0.0
2017-Sep-26 02:31N 37°06' E 025°22'0 0.0
2017-Sep-26 02:01N 37°06' E 025°22'0 0.0
2017-Sep-26 01:31N 37°06' E 025°22'0 0.0
2017-Sep-26 01:01N 37°06' E 025°22'0 0.0
2017-Sep-26 00:31N 37°06' E 025°22'0 0.0
2017-Sep-26 00:01N 37°06' E 025°22'0 0.0
2017-Sep-25 23:31N 37°06' E 025°22'0 0.0
2017-Sep-25 23:01N 37°06' E 025°22'0 0.0
2017-Sep-25 22:31N 37°06' E 025°22'0 0.0
2017-Sep-25 22:01N 37°06' E 025°22'0 0.0
2017-Sep-25 21:31N 37°06' E 025°22'0 0.0
2017-Sep-25 21:01N 37°06' E 025°22'0 0.0
2017-Sep-25 20:31N 37°06' E 025°22'0 0.0
2017-Sep-25 20:01N 37°06' E 025°22'0 0.0
2017-Sep-25 19:31N 37°06' E 025°22'0 0.0
2017-Sep-25 19:01N 37°06' E 025°22'0 0.0
2017-Sep-25 18:31N 37°06' E 025°22'0 0.0
2017-Sep-25 18:01N 37°06' E 025°22'0 0.0
2017-Sep-25 17:31N 37°06' E 025°22'0 0.0
2017-Sep-25 17:01N 37°06' E 025°22'0 0.0
2017-Sep-25 16:31N 37°06' E 025°22'0 0.0
2017-Sep-25 16:01N 37°06' E 025°22'510.0
2017-Sep-25 15:31N 37°09' E 025°17'2 4.6
2017-Sep-25 15:01N 37°10' E 025°15'917.6
2017-Sep-25 14:31N 37°19' E 025°16'917.1
2017-Sep-25 14:01N 37°27' E 025°19'0 0.8
2017-Sep-25 13:30N 37°27' E 025°20'0 0.0
2017-Sep-25 13:01N 37°27' E 025°20'0 0.0
2017-Sep-25 12:31N 37°27' E 025°20'0 0.0
2017-Sep-25 12:01N 37°27' E 025°20'0 0.0
2017-Sep-25 11:30N 37°27' E 025°20'0 0.0
2017-Sep-25 11:01N 37°27' E 025°20'4 8.7
2017-Sep-25 10:31N 37°24' E 025°16'0 0.0
2017-Sep-25 10:01N 37°24' E 025°16'0 0.0
2017-Sep-25 09:30N 37°24' E 025°16'0 0.0
2017-Sep-25 09:01N 37°24' E 025°16'1 1.0
2017-Sep-25 08:31N 37°24' E 025°16'3 6.8
2017-Sep-25 08:01N 37°27' E 025°19'611.4
2017-Sep-25 07:31N 37°22' E 025°15'918.6
2017-Sep-25 07:00N 37°12' E 025°15'5 9.0
2017-Sep-25 06:31N 37°08' E 025°14'713.2
2017-Sep-25 06:01N 37°06' E 025°22'0 0.0
2017-Sep-25 05:31N 37°06' E 025°22'0 0.0
2017-Sep-25 05:01N 37°06' E 025°22'0 0.0
2017-Sep-25 04:31N 37°06' E 025°22'0 0.0
2017-Sep-25 04:01N 37°06' E 025°22'0 0.0
2017-Sep-25 03:31N 37°06' E 025°22'0 0.0
2017-Sep-25 03:01N 37°06' E 025°22'0 0.0
2017-Sep-25 02:31N 37°06' E 025°22'0 0.0
2017-Sep-25 02:01N 37°06' E 025°22'0 0.0
2017-Sep-25 01:31N 37°06' E 025°22'0 0.0
2017-Sep-25 01:01N 37°06' E 025°22'0 0.0
2017-Sep-25 00:31N 37°06' E 025°22'0 0.0
2017-Sep-25 00:01N 37°06' E 025°22'0 0.0
2017-Sep-24 23:31N 37°06' E 025°22'0 0.0
2017-Sep-24 23:01N 37°06' E 025°22'0 0.0
2017-Sep-24 22:27N 37°06' E 025°22'0 0.0
2017-Sep-24 22:01N 37°06' E 025°22'0 0.0
2017-Sep-24 21:31N 37°06' E 025°22'0 0.0
2017-Sep-24 21:01N 37°06' E 025°22'0 0.0
2017-Sep-24 20:31N 37°06' E 025°22'0 0.0
2017-Sep-24 20:01N 37°06' E 025°22'0 0.0
2017-Sep-24 19:31N 37°06' E 025°22'0 0.0
2017-Sep-24 19:01N 37°06' E 025°22'0 0.0
2017-Sep-24 18:31N 37°06' E 025°22'0 0.0
2017-Sep-24 18:01N 37°06' E 025°22'0 0.0
2017-Sep-24 17:31N 37°06' E 025°22'0 0.0
2017-Sep-24 17:01N 37°06' E 025°22'0 0.0
2017-Sep-24 16:31N 37°06' E 025°22'0 0.0
2017-Sep-24 16:01N 37°06' E 025°22'0 0.0
2017-Sep-24 15:31N 37°06' E 025°22'0 0.0
2017-Sep-24 15:01N 37°06' E 025°22'0 0.0
2017-Sep-24 14:30N 37°06' E 025°22'0 0.0
2017-Sep-24 14:01N 37°06' E 025°22'0 0.0
2017-Sep-24 13:30N 37°06' E 025°22'0 0.0
2017-Sep-24 13:01N 37°06' E 025°22'0 0.0
2017-Sep-24 12:31N 37°06' E 025°22'0 0.0
2017-Sep-24 12:01N 37°06' E 025°22'0 0.0
2017-Sep-24 11:31N 37°06' E 025°22'0 0.0
2017-Sep-24 11:01N 37°06' E 025°22'0 0.0
2017-Sep-24 10:31N 37°06' E 025°22'0 0.0
2017-Sep-24 09:13N 37°06' E 025°22'0 0.0
2017-Sep-24 09:01N 37°06' E 025°22'0 0.0
2017-Sep-24 08:31N 37°06' E 025°22'0 0.0
2017-Sep-24 08:01N 37°06' E 025°22'0 0.0
2017-Sep-24 07:31N 37°06' E 025°22'0 0.0
2017-Sep-24 07:01N 37°06' E 025°22'0 0.0
2017-Sep-24 06:31N 37°06' E 025°22'0 0.0
2017-Sep-24 06:01N 37°06' E 025°22'0 0.0
2017-Sep-24 05:31N 37°06' E 025°22'0 0.0
2017-Sep-24 05:00N 37°06' E 025°22'0 0.0
2017-Sep-24 04:31N 37°06' E 025°22'0 0.0
2017-Sep-24 04:01N 37°06' E 025°22'0 0.0
2017-Sep-24 03:31N 37°06' E 025°22'0 0.0
2017-Sep-24 03:01N 37°06' E 025°22'0 0.0
2017-Sep-24 02:31N 37°06' E 025°22'0 0.0
2017-Sep-24 02:01N 37°06' E 025°22'0 0.0
2017-Sep-24 01:31N 37°06' E 025°22'0 0.0
2017-Sep-24 01:01N 37°06' E 025°22'0 0.0
2017-Sep-24 00:31N 37°06' E 025°22'0 0.0
2017-Sep-24 00:01N 37°06' E 025°22'0 0.0
2017-Sep-23 23:31N 37°06' E 025°22'0 0.0
2017-Sep-23 23:01N 37°06' E 025°22'0 0.0
2017-Sep-23 22:31N 37°06' E 025°22'0 0.0
2017-Sep-23 22:01N 37°06' E 025°22'0 0.0
2017-Sep-23 21:31N 37°06' E 025°22'0 0.0
2017-Sep-23 21:01N 37°06' E 025°22'0 0.0
2017-Sep-23 20:31N 37°06' E 025°22'0 0.0
2017-Sep-23 20:01N 37°06' E 025°22'  
Track history (hours):
 
Tides and Currents Weather Stations Pressure Air Temp Water Temp Dewpoint Dewpoint Depression Visibility Wind Speed Wind Dir Waves Ship Positions

Alexander

Last reported at 2017-Oct-02 17:01 UTC. Time now 2017-Nov-19 21:58 UTC.
Position N 37°02' E 025°05'.
Warning: this ship's position is 48 days out of date.

Length 40 m; draft 2.4 m.

Type: Passenger vessel. MMSI: 237133300.

Date/timePositionNaut miles runAvg speedWind from/ knotsBaromVisibWave heightAir tempDewpointWater temp
2017-Oct-02 17:01N 37°02' E 025°05'0 0.0
2017-Oct-02 17:00N 37°02' E 025°05'0 0.3
2017-Oct-02 16:30N 37°02' E 025°05'912.4
2017-Oct-02 15:46N 37°09' E 025°13'2 7.1
2017-Oct-02 15:31N 37°08' E 025°14'612.4
2017-Oct-02 15:00N 37°07' E 025°22'713.3
2017-Oct-02 14:30N 37°13' E 025°20'918.2
2017-Oct-02 14:01N 37°22' E 025°19'5 9.9
2017-Oct-02 13:30N 37°27' E 025°20'0 0.0
2017-Oct-02 13:01N 37°27' E 025°20'0 0.0
2017-Oct-02 12:30N 37°27' E 025°20'0 0.0
2017-Oct-02 12:01N 37°27' E 025°20'0 0.0
2017-Oct-02 11:31N 37°27' E 025°20'0 0.0
2017-Oct-02 11:01N 37°27' E 025°20'4 8.7
2017-Oct-02 10:30N 37°24' E 025°16'0 0.0
2017-Oct-02 10:01N 37°24' E 025°16'0 0.0
2017-Oct-02 09:30N 37°24' E 025°16'0 0.0
2017-Oct-02 09:00N 37°24' E 025°16'2 4.2
2017-Oct-02 08:31N 37°26' E 025°17'1 2.7
2017-Oct-02 08:00N 37°25' E 025°16'611.4
2017-Oct-02 07:30N 37°19' E 025°15'816.7
2017-Oct-02 07:01N 37°11' E 025°15'2 4.2
2017-Oct-02 06:31N 37°09' E 025°15'612.6
2017-Oct-02 06:01N 37°06' E 025°22'0 0.0
2017-Oct-02 05:31N 37°06' E 025°22'0 0.0
2017-Oct-02 05:01N 37°06' E 025°22'0 0.0
2017-Oct-02 04:31N 37°06' E 025°22'0 0.0
2017-Oct-02 04:01N 37°06' E 025°22'0 0.0
2017-Oct-02 03:31N 37°06' E 025°22'0 0.0
2017-Oct-02 03:01N 37°06' E 025°22'0 0.0
2017-Oct-02 02:31N 37°06' E 025°22'0 0.0
2017-Oct-02 02:01N 37°06' E 025°22'0 0.0
2017-Oct-02 01:31N 37°06' E 025°22'0 0.0
2017-Oct-02 01:00N 37°06' E 025°22'0 0.0
2017-Oct-02 00:30N 37°06' E 025°22'0 0.0
2017-Oct-02 00:01N 37°06' E 025°22'0 0.0
2017-Oct-01 23:31N 37°06' E 025°22'0 0.0
2017-Oct-01 23:01N 37°06' E 025°22'0 0.0
2017-Oct-01 22:31N 37°06' E 025°22'0 0.0
2017-Oct-01 22:01N 37°06' E 025°22'0 0.0
2017-Oct-01 21:31N 37°06' E 025°22'0 0.0
2017-Oct-01 21:01N 37°06' E 025°22'0 0.0
2017-Oct-01 20:31N 37°06' E 025°22'0 0.0
2017-Oct-01 20:01N 37°06' E 025°22'0 0.0
2017-Oct-01 19:31N 37°06' E 025°22'0 0.0
2017-Oct-01 19:01N 37°06' E 025°22'0 0.0
2017-Oct-01 18:31N 37°06' E 025°22'0 0.0
2017-Oct-01 18:01N 37°06' E 025°22'0 0.0
2017-Oct-01 17:31N 37°06' E 025°22'0 0.0
2017-Oct-01 17:01N 37°06' E 025°22'0 0.0
2017-Oct-01 16:30N 37°06' E 025°22'0 0.0
2017-Oct-01 16:01N 37°06' E 025°22'0 0.0
2017-Oct-01 15:30N 37°06' E 025°22'0 0.0
2017-Oct-01 15:01N 37°06' E 025°22'0 0.0
2017-Oct-01 14:31N 37°06' E 025°22'0 0.0
2017-Oct-01 14:01N 37°06' E 025°22'0 0.0
2017-Oct-01 13:31N 37°06' E 025°22'0 0.0
2017-Oct-01 13:01N 37°06' E 025°22'0 0.0
2017-Oct-01 12:31N 37°06' E 025°22'0 0.0
2017-Oct-01 12:01N 37°06' E 025°22'0 0.0
2017-Oct-01 11:31N 37°06' E 025°22'0 0.0
2017-Oct-01 11:01N 37°06' E 025°22'0 0.0
2017-Oct-01 10:30N 37°06' E 025°22'0 0.0
2017-Oct-01 10:01N 37°06' E 025°22'0 0.0
2017-Oct-01 09:31N 37°06' E 025°22'0 0.0
2017-Oct-01 09:00N 37°06' E 025°22'0 0.0
2017-Oct-01 08:31N 37°06' E 025°22'0 0.0
2017-Oct-01 08:00N 37°06' E 025°22'0 0.0
2017-Oct-01 07:30N 37°06' E 025°22'0 0.0
2017-Oct-01 07:00N 37°06' E 025°22'0 0.0
2017-Oct-01 06:30N 37°06' E 025°22'0 0.0
2017-Oct-01 06:01N 37°06' E 025°22'0 0.0
2017-Oct-01 05:31N 37°06' E 025°22'0 0.0
2017-Oct-01 05:01N 37°06' E 025°22'0 0.0
2017-Oct-01 04:30N 37°06' E 025°22'0 0.0
2017-Oct-01 04:01N 37°06' E 025°22'0 0.0
2017-Oct-01 03:31N 37°06' E 025°22'0 0.0
2017-Oct-01 03:01N 37°06' E 025°22'0 0.0
2017-Sep-30 02:01N 37°06' E 025°22'0 0.0
2017-Sep-30 01:31N 37°06' E 025°22'0 0.0
2017-Sep-30 01:01N 37°06' E 025°22'0 0.0
2017-Sep-30 00:30N 37°06' E 025°22'0 0.0
2017-Sep-30 00:01N 37°06' E 025°22'0 0.0
2017-Sep-29 23:31N 37°06' E 025°22'0 0.0
2017-Sep-29 23:01N 37°06' E 025°22'0 0.0
2017-Sep-29 22:31N 37°06' E 025°22'0 0.0
2017-Sep-29 22:01N 37°06' E 025°22'0 0.0
2017-Sep-29 21:31N 37°06' E 025°22'0 0.0
2017-Sep-29 21:01N 37°06' E 025°22'0 0.0
2017-Sep-29 20:31N 37°06' E 025°22'1 2.8
2017-Sep-29 20:01N 37°08' E 025°22'1020.0
2017-Sep-29 19:31N 37°17' E 025°20'1019.6
2017-Sep-29 19:01N 37°27' E 025°19'1 1.4
2017-Sep-29 18:31N 37°27' E 025°20'0 0.0
2017-Sep-29 18:00N 37°27' E 025°20'0 0.0
2017-Sep-29 17:31N 37°27' E 025°20'0 0.0
2017-Sep-29 17:00N 37°27' E 025°20'0 0.0
2017-Sep-29 16:31N 37°27' E 025°20'0 0.0
2017-Sep-29 16:00N 37°27' E 025°20'0 0.0
2017-Sep-29 15:31N 37°27' E 025°20'0 0.0
2017-Sep-29 15:00N 37°27' E 025°20'0 0.0
2017-Sep-29 14:31N 37°27' E 025°20'0 0.0
2017-Sep-29 14:01N 37°27' E 025°20'0 0.2
2017-Sep-29 13:31N 37°27' E 025°20'713.8
2017-Sep-29 13:00N 37°20' E 025°18'918.0
2017-Sep-29 12:31N 37°11' E 025°21'510.3
2017-Sep-29 11:59N 37°06' E 025°22'0 0.0
2017-Sep-29 11:31N 37°06' E 025°22'0 0.0
2017-Sep-29 11:01N 37°06' E 025°22'0 0.0
2017-Sep-29 10:31N 37°06' E 025°22'0 0.0
2017-Sep-29 10:01N 37°06' E 025°22'0 0.0
2017-Sep-29 09:31N 37°06' E 025°22'0 0.0
2017-Sep-29 09:01N 37°06' E 025°22'1 1.4
2017-Sep-29 08:31N 37°07' E 025°22'918.7
2017-Sep-29 08:00N 37°16' E 025°19'918.7
2017-Sep-29 07:31N 37°25' E 025°18'2 4.4
2017-Sep-29 07:01N 37°27' E 025°20'0 0.0
2017-Sep-29 06:30N 37°27' E 025°20'0 0.0
2017-Sep-29 06:00N 37°27' E 025°20'0 0.0
2017-Sep-29 05:30N 37°27' E 025°20'0 0.0
2017-Sep-29 05:01N 37°27' E 025°20'0 0.1
2017-Sep-29 04:31N 37°27' E 025°20'612.4
2017-Sep-29 04:01N 37°21' E 025°20'816.5
2017-Sep-29 03:30N 37°13' E 025°21'612.8
2017-Sep-29 03:01N 37°06' E 025°22'0 0.0
2017-Sep-29 02:31N 37°06' E 025°22'0 0.0
2017-Sep-29 02:01N 37°06' E 025°22'0 0.0
2017-Sep-29 01:31N 37°06' E 025°22'0 0.0
2017-Sep-29 01:01N 37°06' E 025°22'0 0.0
2017-Sep-29 00:31N 37°06' E 025°22'0 0.0
2017-Sep-29 00:01N 37°06' E 025°22'0 0.0
2017-Sep-28 23:31N 37°06' E 025°22'0 0.0
2017-Sep-28 23:01N 37°06' E 025°22'0 0.0
2017-Sep-28 22:31N 37°06' E 025°22'0 0.0
2017-Sep-28 22:01N 37°06' E 025°22'0 0.0
2017-Sep-28 21:31N 37°06' E 025°22'0 0.0
2017-Sep-28 21:01N 37°06' E 025°22'0 0.0
2017-Sep-28 20:31N 37°06' E 025°22'0 0.0
2017-Sep-28 20:01N 37°06' E 025°22'0 0.0
2017-Sep-28 19:31N 37°06' E 025°22'0 0.0
2017-Sep-28 19:01N 37°06' E 025°22'0 0.0
2017-Sep-28 18:30N 37°06' E 025°22'0 0.0
2017-Sep-28 18:01N 37°06' E 025°22'0 0.0
2017-Sep-28 17:30N 37°06' E 025°22'0 0.0
2017-Sep-28 17:01N 37°06' E 025°22'0 0.0
2017-Sep-28 16:31N 37°06' E 025°22'0 0.0
2017-Sep-28 16:01N 37°06' E 025°22'0 0.0
2017-Sep-28 15:31N 37°06' E 025°22'0 0.0
2017-Sep-28 15:01N 37°06' E 025°22'0 0.0
2017-Sep-28 14:31N 37°06' E 025°22'0 0.0
2017-Sep-28 14:01N 37°06' E 025°22'0 0.0
2017-Sep-28 13:31N 37°06' E 025°22'0 0.0
2017-Sep-28 13:01N 37°06' E 025°22'0 0.0
2017-Sep-28 12:31N 37°06' E 025°22'0 0.0
2017-Sep-28 12:00N 37°06' E 025°22'0 0.0
2017-Sep-28 11:31N 37°06' E 025°22'0 0.0
2017-Sep-28 11:01N 37°06' E 025°22'0 0.0
2017-Sep-28 10:31N 37°06' E 025°22'0 0.0
2017-Sep-28 10:01N 37°06' E 025°22'0 0.0
2017-Sep-28 09:30N 37°06' E 025°22'0 0.0
2017-Sep-28 09:01N 37°06' E 025°22'0 0.0
2017-Sep-28 08:30N 37°06' E 025°22'0 0.0
2017-Sep-28 08:01N 37°06' E 025°22'0 0.0
2017-Sep-28 07:31N 37°06' E 025°22'0 0.0
2017-Sep-28 07:01N 37°06' E 025°22'0 0.0
2017-Sep-28 06:31N 37°06' E 025°22'0 0.0
2017-Sep-28 06:01N 37°06' E 025°22'0 0.0
2017-Sep-28 05:30N 37°06' E 025°22'0 0.0
2017-Sep-28 05:01N 37°06' E 025°22'0 0.0
2017-Sep-28 04:30N 37°06' E 025°22'0 0.0
2017-Sep-28 04:01N 37°06' E 025°22'0 0.0
2017-Sep-28 03:31N 37°06' E 025°22'0 0.0
2017-Sep-28 03:01N 37°06' E 025°22'0 0.0
2017-Sep-28 02:31N 37°06' E 025°22'0 0.0
2017-Sep-28 02:00N 37°06' E 025°22'0 0.0
2017-Sep-28 01:30N 37°06' E 025°22'0 0.0
2017-Sep-28 01:01N 37°06' E 025°22'0 0.0
2017-Sep-28 00:30N 37°06' E 025°22'0 0.0
2017-Sep-28 00:01N 37°06' E 025°22'0 0.0
2017-Sep-27 23:31N 37°06' E 025°22'0 0.0
2017-Sep-27 23:01N 37°06' E 025°22'0 0.0
2017-Sep-27 22:30N 37°06' E 025°22'0 0.0
2017-Sep-27 22:00N 37°06' E 025°22'0 0.0
2017-Sep-27 21:30N 37°06' E 025°22'0 0.0
2017-Sep-27 21:01N 37°06' E 025°22'0 0.0
2017-Sep-27 20:30N 37°06' E 025°22'0 0.0
2017-Sep-27 20:01N 37°06' E 025°22'0 0.0
2017-Sep-27 19:31N 37°06' E 025°22'0 0.0
2017-Sep-27 19:00N 37°06' E 025°22'0 0.0
2017-Sep-27 18:30N 37°06' E 025°22'0 0.0
2017-Sep-27 18:01N 37°06' E 025°22'0 0.0
2017-Sep-27 17:30N 37°06' E 025°22'0 0.0
2017-Sep-27 17:01N 37°06' E 025°22'0 0.0
2017-Sep-27 16:30N 37°06' E 025°22'0 0.0
2017-Sep-27 16:00N 37°06' E 025°22'510.2
2017-Sep-27 15:30N 37°09' E 025°17'2 5.0
2017-Sep-27 15:00N 37°10' E 025°15'918.4
2017-Sep-27 14:30N 37°20' E 025°16'815.9
2017-Sep-27 14:01N 37°27' E 025°20'0 0.0
2017-Sep-27 13:31N 37°27' E 025°20'0 0.0
2017-Sep-27 13:00N 37°27' E 025°20'0 0.0
2017-Sep-27 12:31N 37°27' E 025°20'0 0.0
2017-Sep-27 12:01N 37°27' E 025°20'0 0.0
2017-Sep-27 11:31N 37°27' E 025°20'0 0.0
2017-Sep-27 11:01N 37°27' E 025°20'4 8.7
2017-Sep-27 10:31N 37°24' E 025°16'0 0.0
2017-Sep-27 10:01N 37°24' E 025°16'0 0.0
2017-Sep-27 09:31N 37°24' E 025°16'1 2.3
2017-Sep-27 09:01N 37°25' E 025°16'3 6.8
2017-Sep-27 08:31N 37°27' E 025°20'0 0.0
2017-Sep-27 08:01N 37°27' E 025°20'510.7
2017-Sep-27 07:31N 37°23' E 025°16'1020.1
2017-Sep-27 07:00N 37°13' E 025°15'4 8.8
2017-Sep-27 06:31N 37°08' E 025°15'613.0
2017-Sep-27 06:01N 37°06' E 025°22'0 0.0
2017-Sep-27 05:30N 37°06' E 025°22'0 0.0
2017-Sep-27 05:01N 37°06' E 025°22'0 0.0
2017-Sep-27 04:31N 37°06' E 025°22'0 0.0
2017-Sep-27 04:01N 37°06' E 025°22'0 0.0
2017-Sep-27 03:31N 37°06' E 025°22'0 0.0
2017-Sep-27 03:01N 37°06' E 025°22'0 0.0
2017-Sep-27 02:31N 37°06' E 025°22'0 0.0
2017-Sep-27 02:01N 37°06' E 025°22'0 0.0
2017-Sep-27 01:30N 37°06' E 025°22'0 0.0
2017-Sep-27 01:01N 37°06' E 025°22'0 0.0
2017-Sep-27 00:31N 37°06' E 025°22'0 0.0
2017-Sep-27 00:01N 37°06' E 025°22'0 0.0
2017-Sep-26 23:31N 37°06' E 025°22'0 0.0
2017-Sep-26 23:01N 37°06' E 025°22'0 0.0
2017-Sep-26 22:31N 37°06' E 025°22'0 0.0
2017-Sep-26 22:01N 37°06' E 025°22'0 0.0
2017-Sep-26 21:31N 37°06' E 025°22'0 0.0
2017-Sep-26 21:00N 37°06' E 025°22'0 0.0
2017-Sep-26 20:31N 37°06' E 025°22'0 0.0
2017-Sep-26 20:00N 37°06' E 025°22'0 0.0
2017-Sep-26 19:31N 37°06' E 025°22'0 0.0
2017-Sep-26 19:01N 37°06' E 025°22'0 0.0
2017-Sep-26 18:31N 37°06' E 025°22'0 0.0
2017-Sep-26 18:01N 37°06' E 025°22'0 0.0
2017-Sep-26 17:30N 37°06' E 025°22'0 0.0
2017-Sep-26 17:01N 37°06' E 025°22'4 7.1
2017-Sep-26 16:30N 37°04' E 025°19'5 0.5
2017-Sep-26 05:41N 36°59' E 025°16'315.1
2017-Sep-26 05:31N 37°02' E 025°16'714.0
2017-Sep-26 05:01N 37°06' E 025°22'0 0.0
2017-Sep-26 04:31N 37°06' E 025°22'0 0.0
2017-Sep-26 04:01N 37°06' E 025°22'0 0.0
2017-Sep-26 03:31N 37°06' E 025°22'0 0.0
2017-Sep-26 03:01N 37°06' E 025°22'0 0.0
2017-Sep-26 02:31N 37°06' E 025°22'0 0.0
2017-Sep-26 02:01N 37°06' E 025°22'0 0.0
2017-Sep-26 01:31N 37°06' E 025°22'0 0.0
2017-Sep-26 01:01N 37°06' E 025°22'0 0.0
2017-Sep-26 00:31N 37°06' E 025°22'0 0.0
2017-Sep-26 00:01N 37°06' E 025°22'0 0.0
2017-Sep-25 23:31N 37°06' E 025°22'0 0.0
2017-Sep-25 23:01N 37°06' E 025°22'0 0.0
2017-Sep-25 22:31N 37°06' E 025°22'0 0.0
2017-Sep-25 22:01N 37°06' E 025°22'0 0.0
2017-Sep-25 21:31N 37°06' E 025°22'0 0.0
2017-Sep-25 21:01N 37°06' E 025°22'0 0.0
2017-Sep-25 20:31N 37°06' E 025°22'0 0.0
2017-Sep-25 20:01N 37°06' E 025°22'0 0.0
2017-Sep-25 19:31N 37°06' E 025°22'0 0.0
2017-Sep-25 19:01N 37°06' E 025°22'0 0.0
2017-Sep-25 18:31N 37°06' E 025°22'0 0.0
2017-Sep-25 18:01N 37°06' E 025°22'0 0.0
2017-Sep-25 17:31N 37°06' E 025°22'0 0.0
2017-Sep-25 17:01N 37°06' E 025°22'0 0.0
2017-Sep-25 16:31N 37°06' E 025°22'0 0.0
2017-Sep-25 16:01N 37°06' E 025°22'510.0
2017-Sep-25 15:31N 37°09' E 025°17'2 4.6
2017-Sep-25 15:01N 37°10' E 025°15'917.6
2017-Sep-25 14:31N 37°19' E 025°16'917.1
2017-Sep-25 14:01N 37°27' E 025°19'0 0.8
2017-Sep-25 13:30N 37°27' E 025°20'0 0.0
2017-Sep-25 13:01N 37°27' E 025°20'0 0.0
2017-Sep-25 12:31N 37°27' E 025°20'0 0.0
2017-Sep-25 12:01N 37°27' E 025°20'0 0.0
2017-Sep-25 11:30N 37°27' E 025°20'0 0.0
2017-Sep-25 11:01N 37°27' E 025°20'4 8.7
2017-Sep-25 10:31N 37°24' E 025°16'0 0.0
2017-Sep-25 10:01N 37°24' E 025°16'0 0.0
2017-Sep-25 09:30N 37°24' E 025°16'0 0.0
2017-Sep-25 09:01N 37°24' E 025°16'1 1.0
2017-Sep-25 08:31N 37°24' E 025°16'3 6.8
2017-Sep-25 08:01N 37°27' E 025°19'611.4
2017-Sep-25 07:31N 37°22' E 025°15'918.6
2017-Sep-25 07:00N 37°12' E 025°15'5 9.0
2017-Sep-25 06:31N 37°08' E 025°14'713.2
2017-Sep-25 06:01N 37°06' E 025°22'0 0.0
2017-Sep-25 05:31N 37°06' E 025°22'0 0.0
2017-Sep-25 05:01N 37°06' E 025°22'0 0.0
2017-Sep-25 04:31N 37°06' E 025°22'0 0.0
2017-Sep-25 04:01N 37°06' E 025°22'0 0.0
2017-Sep-25 03:31N 37°06' E 025°22'0 0.0
2017-Sep-25 03:01N 37°06' E 025°22'0 0.0
2017-Sep-25 02:31N 37°06' E 025°22'0 0.0
2017-Sep-25 02:01N 37°06' E 025°22'0 0.0
2017-Sep-25 01:31N 37°06' E 025°22'0 0.0
2017-Sep-25 01:01N 37°06' E 025°22'0 0.0
2017-Sep-25 00:31N 37°06' E 025°22'0 0.0
2017-Sep-25 00:01N 37°06' E 025°22'0 0.0
2017-Sep-24 23:31N 37°06' E 025°22'0 0.0
2017-Sep-24 23:01N 37°06' E 025°22'0 0.0
2017-Sep-24 22:27N 37°06' E 025°22'0 0.0
2017-Sep-24 22:01N 37°06' E 025°22'0 0.0
2017-Sep-24 21:31N 37°06' E 025°22'0 0.0
2017-Sep-24 21:01N 37°06' E 025°22'0 0.0
2017-Sep-24 20:31N 37°06' E 025°22'0 0.0
2017-Sep-24 20:01N 37°06' E 025°22'0 0.0
2017-Sep-24 19:31N 37°06' E 025°22'0 0.0
2017-Sep-24 19:01N 37°06' E 025°22'0 0.0
2017-Sep-24 18:31N 37°06' E 025°22'0 0.0
2017-Sep-24 18:01N 37°06' E 025°22'0 0.0
2017-Sep-24 17:31N 37°06' E 025°22'0 0.0
2017-Sep-24 17:01N 37°06' E 025°22'0 0.0
2017-Sep-24 16:31N 37°06' E 025°22'0 0.0
2017-Sep-24 16:01N 37°06' E 025°22'0 0.0
2017-Sep-24 15:31N 37°06' E 025°22'0 0.0
2017-Sep-24 15:01N 37°06' E 025°22'0 0.0
2017-Sep-24 14:30N 37°06' E 025°22'0 0.0
2017-Sep-24 14:01N 37°06' E 025°22'0 0.0
2017-Sep-24 13:30N 37°06' E 025°22'0 0.0
2017-Sep-24 13:01N 37°06' E 025°22'0 0.0
2017-Sep-24 12:31N 37°06' E 025°22'0 0.0
2017-Sep-24 12:01N 37°06' E 025°22'0 0.0
2017-Sep-24 11:31N 37°06' E 025°22'0 0.0
2017-Sep-24 11:01N 37°06' E 025°22'0 0.0
2017-Sep-24 10:31N 37°06' E 025°22'0 0.0
2017-Sep-24 09:13N 37°06' E 025°22'0 0.0
2017-Sep-24 09:01N 37°06' E 025°22'0 0.0
2017-Sep-24 08:31N 37°06' E 025°22'0 0.0
2017-Sep-24 08:01N 37°06' E 025°22'0 0.0
2017-Sep-24 07:31N 37°06' E 025°22'0 0.0
2017-Sep-24 07:01N 37°06' E 025°22'0 0.0
2017-Sep-24 06:31N 37°06' E 025°22'0 0.0
2017-Sep-24 06:01N 37°06' E 025°22'0 0.0
2017-Sep-24 05:31N 37°06' E 025°22'0 0.0
2017-Sep-24 05:00N 37°06' E 025°22'0 0.0
2017-Sep-24 04:31N 37°06' E 025°22'0 0.0
2017-Sep-24 04:01N 37°06' E 025°22'0 0.0
2017-Sep-24 03:31N 37°06' E 025°22'0 0.0
2017-Sep-24 03:01N 37°06' E 025°22'0 0.0
2017-Sep-24 02:31N 37°06' E 025°22'0 0.0
2017-Sep-24 02:01N 37°06' E 025°22'0 0.0
2017-Sep-24 01:31N 37°06' E 025°22'0 0.0
2017-Sep-24 01:01N 37°06' E 025°22'0 0.0
2017-Sep-24 00:31N 37°06' E 025°22'0 0.0
2017-Sep-24 00:01N 37°06' E 025°22'0 0.0
2017-Sep-23 23:31N 37°06' E 025°22'0 0.0
2017-Sep-23 23:01N 37°06' E 025°22'0 0.0
2017-Sep-23 22:31N 37°06' E 025°22'0 0.0
2017-Sep-23 22:01N 37°06' E 025°22'0 0.0
2017-Sep-23 21:31N 37°06' E 025°22'0 0.0
2017-Sep-23 21:01N 37°06' E 025°22'0 0.0
2017-Sep-23 20:31N 37°06' E 025°22'0 0.0
2017-Sep-23 20:01N 37°06' E 025°22'  

Dump ship's entire track history